• Join FlightAware (Why Join?)
  • Login
  • US Flag 
05:11AM EDT


 

Airport Tracker/Info


-or-


 

Live Flight TrackerFlight Track Log ✈ EJA922 ✈ 27-Aug-2013 ✈ KCHO - KBWI

Flight Track Log - Related Links

Times and Time Zones

All times are in EDT time to prevent confusion due to time zone crossing. See the EJA922 flight status page for this flight to view local times or setup timezone preferences in your user account.

Time Position Orientation Groundspeed Altitude Reporting Facility
EDT Latitude Longitude Course Direction KTS MPH feet Rate Location/Type
07:03PM 38.2000 -78.4167 25° Northeast 240 276 4,100  Level Potomac TRACON
07:04PM 38.1953 -78.2839 93° East 282 325 8,000 1,980 Climbing Washington Center
07:05PM 38.1786 -78.1831 102° East 282 325 9,000 840 Climbing Washington Center
07:06PM 38.1642 -78.0822 100° East 282 325 9,700 480 Climbing Washington Center
07:07PM 38.1475 -77.9733 101° East 289 333 10,000 120 Climbing Washington Center
07:08PM 38.1269 -77.8458 102° East 330 380 10,000 300 Level Washington Center
07:09PM 38.1067 -77.7108 101° East 363 418 10,700 1,380 Climbing Washington Center
07:10PM 38.0839 -77.5731 102° East 388 447 12,800 1,920 Climbing Washington Center
07:11PM 38.1047 -77.4389 79° East 389 448 14,600 1,020 Climbing Washington Center
07:12PM 38.1917 -77.3406 42° Northeast 361 415 15,000 180 Climbing Washington Center
07:13PM 38.2828 -77.2475 39° Northeast 380 437 15,000  Level Washington Center
07:14PM 38.3694 -77.1514 41° Northeast 399 459 15,000 -600 Level Washington Center
07:15PM 38.4478 -77.0603 42° Northeast 414 476 13,800 -1,620 Descending Washington Center
07:16PM 38.5219 -76.9664 45° Northeast 400 460 11,800 -1,440 Descending Washington Center
07:17PM 38.5833 -76.8931 43° Northeast 348 400 10,900 -960 Descending Washington Center
07:18PM 38.6422 -76.8222 43° Northeast 310 357 10,000 -960 Descending Washington Center
07:19PM 38.7036 -76.7489 43° Northeast 290 334 9,100 -1,260 Descending Washington Center
07:21PM 38.7667 -76.5833 64° Northeast 279 321 6,700 -1,200 Descending Potomac TRACON
07:22PM 38.8167 -76.5333 38° Northeast 267 307 6,100 -1,020 Descending Potomac TRACON
07:23PM 38.8833 -76.5333 360° North 238 274 4,800 -1,080 Descending Potomac TRACON
07:24PM 38.9500 -76.5167 11° North 222 255 4,100 -660 Descending Potomac TRACON
07:25PM 39.0000 -76.5000 15° North 176 203 3,600 -600 Descending Potomac TRACON
07:26PM 39.0333 -76.5333 322° Northwest 175 201 3,000 -600 Descending Potomac TRACON
07:27PM 39.0667 -76.5833 311° West 171 197 2,400 -780 Descending Potomac TRACON
07:28PM 39.1000 -76.6167 322° Northwest 146 168 1,500 -840 Descending Potomac TRACON
07:29PM 39.1333 -76.6333 339° North 146 168 800 -720 Descending Potomac TRACON
07:31PM 39.1667 -76.6667 339° North  Level FlightAware Approximate
07:38PM 39.1754 -76.6683 339° North  Level Estimated
07:39PM 39.1754 -76.6683 339° North  Level Estimated
07:40PM 39.1754 -76.6683 339° North  Level Estimated
07:41PM 39.1754 -76.6683 339° North  Level Estimated
07:42PM 39.1754 -76.6683 339° North  Level Estimated